Stephen M. White — WCU6542 — position and weather

sailwx.info

Track history (hours):
 
Tides and Currents Weather Stations Pressure Air Temp Water Temp Dewpoint Dewpoint Depression Visibility Wind Speed Wind Dir Waves Ship Positions

Stephen M. White

Owner: LOS ANGELES, CITY OF, SAN PEDRO, CA. More information available from US FCC via Universal Licensing System and Coast Guard Vessel Documentation Center.

Last reported at 2014-Dec-25 05:11 UTC. Time now 2014-Dec-26 00:50 UTC.
Position N 33°43' W 118°16'.

Length 20 m.

Type: Pilot. MMSI: 367049470.

Date/timePositionNaut miles runAvg speedWind from/ knotsBaromVisibWave heightAir tempDewpointWater temp
2014-Dec-25 05:11N 33°43' W 118°16'0 0.0
2014-Dec-25 04:27N 33°43' W 118°16'0 0.0
2014-Dec-25 03:25N 33°43' W 118°16'0 0.0
2014-Dec-25 02:34N 33°43' W 118°16'0 0.0
2014-Dec-25 01:33N 33°43' W 118°16'0 0.0
2014-Dec-25 00:34N 33°43' W 118°16'0 0.0
2014-Dec-24 23:32N 33°43' W 118°16'0 0.0
2014-Dec-24 22:12N 33°43' W 118°16'0 0.1
2014-Dec-24 13:32N 33°43' W 118°16'0 0.5
2014-Dec-24 12:33N 33°43' W 118°16'3 2.4
2014-Dec-24 11:29N 33°41' W 118°14'3 2.0
2014-Dec-24 10:10N 33°43' W 118°16'0 0.0
2014-Dec-24 09:28N 33°43' W 118°16'0 0.0
2014-Dec-24 07:33N 33°43' W 118°16'0 0.0
2014-Dec-24 06:31N 33°43' W 118°16'0 0.0
2014-Dec-24 05:33N 33°43' W 118°16'0 0.0
2014-Dec-24 04:33N 33°43' W 118°16'1 1.4
2014-Dec-24 03:33N 33°43' W 118°15'1 1.4
2014-Dec-24 02:32N 33°43' W 118°16'3 2.6
2014-Dec-24 01:33N 33°42' W 118°13'3 2.5
2014-Dec-24 00:33N 33°43' W 118°16'0 0.0
2014-Dec-23 23:31N 33°43' W 118°16'0 0.0
2014-Dec-23 22:33N 33°43' W 118°16'0 0.0
2014-Dec-23 21:33N 33°43' W 118°16'0 0.0
2014-Dec-23 20:33N 33°43' W 118°16'0 0.0
2014-Dec-23 19:33N 33°43' W 118°16'0 0.0
2014-Dec-23 18:33N 33°43' W 118°16'0 0.0
2014-Dec-23 17:33N 33°43' W 118°16'0 0.0
2014-Dec-23 16:34N 33°43' W 118°16'0 0.0
2014-Dec-23 15:34N 33°43' W 118°16'0 0.0
2014-Dec-23 14:33N 33°43' W 118°16'2 1.5
2014-Dec-23 13:33N 33°42' W 118°15'2 1.5
2014-Dec-23 12:33N 33°43' W 118°16'0 0.0
2014-Dec-23 11:33N 33°43' W 118°16'0 0.0
2014-Dec-23 10:33N 33°43' W 118°16'0 0.0
2014-Dec-23 09:33N 33°43' W 118°16'0 0.0
2014-Dec-23 08:33N 33°43' W 118°16'0 0.0
2014-Dec-23 07:33N 33°43' W 118°16'0 0.0
2014-Dec-23 06:33N 33°43' W 118°16'0 0.0
2014-Dec-23 05:33N 33°43' W 118°16'0 0.0
2014-Dec-23 04:33N 33°43' W 118°16'0 0.0
2014-Dec-23 03:33N 33°43' W 118°16'2 1.7
2014-Dec-23 02:34N 33°42' W 118°14'2 1.7
2014-Dec-23 01:33N 33°43' W 118°16'0 0.0
2014-Dec-23 00:33N 33°43' W 118°16'0 0.0
2014-Dec-22 23:33N 33°43' W 118°16'0 0.0
2014-Dec-22 22:33N 33°43' W 118°16'0 0.0
2014-Dec-22 21:33N 33°43' W 118°16'0 0.0
2014-Dec-22 20:34N 33°43' W 118°16'1 0.5
2014-Dec-22 19:31N 33°44' W 118°17'1 0.5
2014-Dec-22 18:30N 33°43' W 118°16'0 0.0
2014-Dec-22 16:23N 33°43' W 118°16'0 0.0
2014-Dec-22 15:33N 33°43' W 118°16'0 0.0
2014-Dec-22 14:17N 33°43' W 118°16'2 1.0
2014-Dec-22 12:33N 33°42' W 118°15'2 1.7
2014-Dec-22 11:33N 33°43' W 118°16'0 0.0
2014-Dec-22 10:19N 33°43' W 118°16'0 0.0
2014-Dec-22 09:33N 33°43' W 118°16'0 0.0
2014-Dec-22 08:33N 33°43' W 118°16'0 0.0
2014-Dec-22 07:33N 33°43' W 118°16'0 0.0
2014-Dec-22 06:18N 33°43' W 118°16'0 0.0
2014-Dec-22 04:28N 33°43' W 118°16'2 1.2
2014-Dec-22 03:04N 33°42' W 118°15'2 0.9
2014-Dec-22 01:09N 33°43' W 118°16'0 0.0
2014-Dec-22 00:29N 33°43' W 118°16'  
2014-Dec-17 13:06N 33°44' W 118°14'  
Track history (hours):
 
Tides and Currents Weather Stations Pressure Air Temp Water Temp Dewpoint Dewpoint Depression Visibility Wind Speed Wind Dir Waves Ship Positions

Stephen M. White

Owner: LOS ANGELES, CITY OF, SAN PEDRO, CA. More information available from US FCC via Universal Licensing System and Coast Guard Vessel Documentation Center.

Last reported at 2014-Dec-25 05:11 UTC. Time now 2014-Dec-26 00:50 UTC.
Position N 33°43' W 118°16'.

Length 20 m.

Type: Pilot. MMSI: 367049470.

Date/timePositionNaut miles runAvg speedWind from/ knotsBaromVisibWave heightAir tempDewpointWater temp
2014-Dec-25 05:11N 33°43' W 118°16'0 0.0
2014-Dec-25 04:27N 33°43' W 118°16'0 0.0
2014-Dec-25 03:25N 33°43' W 118°16'0 0.0
2014-Dec-25 02:34N 33°43' W 118°16'0 0.0
2014-Dec-25 01:33N 33°43' W 118°16'0 0.0
2014-Dec-25 00:34N 33°43' W 118°16'0 0.0
2014-Dec-24 23:32N 33°43' W 118°16'0 0.0
2014-Dec-24 22:12N 33°43' W 118°16'0 0.1
2014-Dec-24 13:32N 33°43' W 118°16'0 0.5
2014-Dec-24 12:33N 33°43' W 118°16'3 2.4
2014-Dec-24 11:29N 33°41' W 118°14'3 2.0
2014-Dec-24 10:10N 33°43' W 118°16'0 0.0
2014-Dec-24 09:28N 33°43' W 118°16'0 0.0
2014-Dec-24 07:33N 33°43' W 118°16'0 0.0
2014-Dec-24 06:31N 33°43' W 118°16'0 0.0
2014-Dec-24 05:33N 33°43' W 118°16'0 0.0
2014-Dec-24 04:33N 33°43' W 118°16'1 1.4
2014-Dec-24 03:33N 33°43' W 118°15'1 1.4
2014-Dec-24 02:32N 33°43' W 118°16'3 2.6
2014-Dec-24 01:33N 33°42' W 118°13'3 2.5
2014-Dec-24 00:33N 33°43' W 118°16'0 0.0
2014-Dec-23 23:31N 33°43' W 118°16'0 0.0
2014-Dec-23 22:33N 33°43' W 118°16'0 0.0
2014-Dec-23 21:33N 33°43' W 118°16'0 0.0
2014-Dec-23 20:33N 33°43' W 118°16'0 0.0
2014-Dec-23 19:33N 33°43' W 118°16'0 0.0
2014-Dec-23 18:33N 33°43' W 118°16'0 0.0
2014-Dec-23 17:33N 33°43' W 118°16'0 0.0
2014-Dec-23 16:34N 33°43' W 118°16'0 0.0
2014-Dec-23 15:34N 33°43' W 118°16'0 0.0
2014-Dec-23 14:33N 33°43' W 118°16'2 1.5
2014-Dec-23 13:33N 33°42' W 118°15'2 1.5
2014-Dec-23 12:33N 33°43' W 118°16'0 0.0
2014-Dec-23 11:33N 33°43' W 118°16'0 0.0
2014-Dec-23 10:33N 33°43' W 118°16'0 0.0
2014-Dec-23 09:33N 33°43' W 118°16'0 0.0
2014-Dec-23 08:33N 33°43' W 118°16'0 0.0
2014-Dec-23 07:33N 33°43' W 118°16'0 0.0
2014-Dec-23 06:33N 33°43' W 118°16'0 0.0
2014-Dec-23 05:33N 33°43' W 118°16'0 0.0
2014-Dec-23 04:33N 33°43' W 118°16'0 0.0
2014-Dec-23 03:33N 33°43' W 118°16'2 1.7
2014-Dec-23 02:34N 33°42' W 118°14'2 1.7
2014-Dec-23 01:33N 33°43' W 118°16'0 0.0
2014-Dec-23 00:33N 33°43' W 118°16'0 0.0
2014-Dec-22 23:33N 33°43' W 118°16'0 0.0
2014-Dec-22 22:33N 33°43' W 118°16'0 0.0
2014-Dec-22 21:33N 33°43' W 118°16'0 0.0
2014-Dec-22 20:34N 33°43' W 118°16'1 0.5
2014-Dec-22 19:31N 33°44' W 118°17'1 0.5
2014-Dec-22 18:30N 33°43' W 118°16'0 0.0
2014-Dec-22 16:23N 33°43' W 118°16'0 0.0
2014-Dec-22 15:33N 33°43' W 118°16'0 0.0
2014-Dec-22 14:17N 33°43' W 118°16'2 1.0
2014-Dec-22 12:33N 33°42' W 118°15'2 1.7
2014-Dec-22 11:33N 33°43' W 118°16'0 0.0
2014-Dec-22 10:19N 33°43' W 118°16'0 0.0
2014-Dec-22 09:33N 33°43' W 118°16'0 0.0
2014-Dec-22 08:33N 33°43' W 118°16'0 0.0
2014-Dec-22 07:33N 33°43' W 118°16'0 0.0
2014-Dec-22 06:18N 33°43' W 118°16'0 0.0
2014-Dec-22 04:28N 33°43' W 118°16'2 1.2
2014-Dec-22 03:04N 33°42' W 118°15'2 0.9
2014-Dec-22 01:09N 33°43' W 118°16'0 0.0
2014-Dec-22 00:29N 33°43' W 118°16'  
2014-Dec-17 13:06N 33°44' W 118°14'  

Dump ship's entire track history